Terminal Aerodrome Forecast
Issued by NWS Louisville, KY

Home | Current Version | Previous Version | Text Only | Print | Product List | Glossary On
Versions: 1 2 3 4 5 6 7 8 9 10 11 12 13 14 15 16 17 18 19 20 21 22 23
683
FTUS43 KLMK 142121 AAA
TAFBWG
TAF AMD
KBWG 142121Z 1421/1518 VRB04KT P6SM BKN016
     FM150300 00000KT P6SM VCSH BKN020
     FM151000 00000KT 3SM BR BKN012
     FM151500 VRB03KT P6SM BKN025=

USA.gov is the U.S. government's official web portal to all federal, state and local government web resources and services.